sensor_id;sensor_type;location;lat;lon;timestamp;P1;durP1;ratioP1;P2;durP2;ratioP2
32365;SDS011;18837;46.832;16.838;2022-10-17T00:01:30;25.80;;;22.50;;
32365;SDS011;18837;46.832;16.838;2022-10-17T00:03:56;23.93;;;21.47;;
32365;SDS011;18837;46.832;16.838;2022-10-17T00:06:22;24.73;;;22.03;;
32365;SDS011;18837;46.832;16.838;2022-10-17T00:08:48;24.27;;;21.70;;
32365;SDS011;18837;46.832;16.838;2022-10-17T00:11:25;22.93;;;20.53;;
32365;SDS011;18837;46.832;16.838;2022-10-17T00:13:53;24.00;;;21.50;;
32365;SDS011;18837;46.832;16.838;2022-10-17T00:16:23;24.90;;;21.00;;
32365;SDS011;18837;46.832;16.838;2022-10-17T00:18:54;24.30;;;21.70;;
32365;SDS011;18837;46.832;16.838;2022-10-17T00:21:21;24.53;;;21.07;;
32365;SDS011;18837;46.832;16.838;2022-10-17T00:23:47;23.53;;;21.03;;
32365;SDS011;18837;46.832;16.838;2022-10-17T00:31:49;22.73;;;20.33;;
32365;SDS011;18837;46.832;16.838;2022-10-17T00:34:18;25.17;;;20.40;;
32365;SDS011;18837;46.832;16.838;2022-10-17T00:36:43;23.67;;;20.37;;
32365;SDS011;18837;46.832;16.838;2022-10-17T00:39:09;23.60;;;20.80;;
32365;SDS011;18837;46.832;16.838;2022-10-17T00:41:34;23.77;;;21.17;;
32365;SDS011;18837;46.832;16.838;2022-10-17T00:45:03;23.60;;;21.00;;
32365;SDS011;18837;46.832;16.838;2022-10-17T00:47:05;23.43;;;20.53;;
32365;SDS011;18837;46.832;16.838;2022-10-17T00:49:38;24.03;;;20.43;;
32365;SDS011;18837;46.832;16.838;2022-10-17T00:52:09;23.93;;;20.80;;
32365;SDS011;18837;46.832;16.838;2022-10-17T00:54:48;26.47;;;22.07;;
32365;SDS011;18837;46.832;16.838;2022-10-17T00:57:20;23.47;;;21.00;;
32365;SDS011;18837;46.832;16.838;2022-10-17T00:59:47;23.60;;;21.10;;
32365;SDS011;18837;46.832;16.838;2022-10-17T01:02:22;23.30;;;20.23;;
32365;SDS011;18837;46.832;16.838;2022-10-17T01:04:55;23.00;;;20.60;;
32365;SDS011;18837;46.832;16.838;2022-10-17T01:07:23;23.10;;;20.63;;
32365;SDS011;18837;46.832;16.838;2022-10-17T01:09:49;23.27;;;20.83;;
32365;SDS011;18837;46.832;16.838;2022-10-17T01:15:14;23.87;;;20.50;;
32365;SDS011;18837;46.832;16.838;2022-10-17T01:23:35;23.43;;;19.27;;
32365;SDS011;18837;46.832;16.838;2022-10-17T01:36:00;22.27;;;19.60;;
32365;SDS011;18837;46.832;16.838;2022-10-17T01:38:47;22.60;;;19.47;;
32365;SDS011;18837;46.832;16.838;2022-10-17T01:44:04;22.30;;;19.90;;
32365;SDS011;18837;46.832;16.838;2022-10-17T01:46:42;23.77;;;19.10;;
32365;SDS011;18837;46.832;16.838;2022-10-17T01:49:14;21.40;;;19.10;;
32365;SDS011;18837;46.832;16.838;2022-10-17T01:51:48;21.83;;;19.40;;
32365;SDS011;18837;46.832;16.838;2022-10-17T01:54:28;20.60;;;17.97;;
32365;SDS011;18837;46.832;16.838;2022-10-17T01:56:58;20.57;;;18.47;;
32365;SDS011;18837;46.832;16.838;2022-10-17T01:59:30;19.30;;;17.30;;
32365;SDS011;18837;46.832;16.838;2022-10-17T02:02:04;20.07;;;17.87;;
32365;SDS011;18837;46.832;16.838;2022-10-17T02:04:31;20.27;;;18.20;;
32365;SDS011;18837;46.832;16.838;2022-10-17T02:07:04;21.67;;;18.63;;
32365;SDS011;18837;46.832;16.838;2022-10-17T02:09:37;18.60;;;16.67;;
32365;SDS011;18837;46.832;16.838;2022-10-17T02:18:47;20.47;;;18.27;;
32365;SDS011;18837;46.832;16.838;2022-10-17T02:24:04;19.80;;;17.67;;
32365;SDS011;18837;46.832;16.838;2022-10-17T02:27:01;19.43;;;17.30;;
32365;SDS011;18837;46.832;16.838;2022-10-17T02:29:57;20.77;;;18.47;;
32365;SDS011;18837;46.832;16.838;2022-10-17T02:32:38;20.97;;;18.03;;
32365;SDS011;18837;46.832;16.838;2022-10-17T02:35:16;20.03;;;16.80;;
32365;SDS011;18837;46.832;16.838;2022-10-17T02:37:44;19.87;;;17.77;;
32365;SDS011;18837;46.832;16.838;2022-10-17T02:40:11;19.20;;;16.70;;
32365;SDS011;18837;46.832;16.838;2022-10-17T02:42:39;19.63;;;15.67;;
32365;SDS011;18837;46.832;16.838;2022-10-17T02:51:04;18.00;;;16.10;;
32365;SDS011;18837;46.832;16.838;2022-10-17T02:56:28;18.63;;;16.67;;
32365;SDS011;18837;46.832;16.838;2022-10-17T02:58:57;19.03;;;17.00;;
32365;SDS011;18837;46.832;16.838;2022-10-17T03:01:24;18.20;;;16.30;;
32365;SDS011;18837;46.832;16.838;2022-10-17T03:04:11;17.87;;;16.07;;
32365;SDS011;18837;46.832;16.838;2022-10-17T03:06:38;18.50;;;16.60;;
32365;SDS011;18837;46.832;16.838;2022-10-17T03:09:05;18.20;;;16.30;;
32365;SDS011;18837;46.832;16.838;2022-10-17T03:11:31;17.30;;;15.50;;
32365;SDS011;18837;46.832;16.838;2022-10-17T03:13:57;17.93;;;16.03;;
32365;SDS011;18837;46.832;16.838;2022-10-17T03:16:23;20.30;;;16.67;;
32365;SDS011;18837;46.832;16.838;2022-10-17T03:18:58;17.13;;;15.27;;
32365;SDS011;18837;46.832;16.838;2022-10-17T03:21:36;16.97;;;15.17;;
32365;SDS011;18837;46.832;16.838;2022-10-17T03:24:20;18.33;;;15.60;;
32365;SDS011;18837;46.832;16.838;2022-10-17T03:26:46;17.80;;;15.57;;
32365;SDS011;18837;46.832;16.838;2022-10-17T03:29:12;15.97;;;14.23;;
32365;SDS011;18837;46.832;16.838;2022-10-17T03:31:38;18.40;;;15.77;;
32365;SDS011;18837;46.832;16.838;2022-10-17T03:34:03;16.97;;;15.17;;
32365;SDS011;18837;46.832;16.838;2022-10-17T03:36:29;16.83;;;15.13;;
32365;SDS011;18837;46.832;16.838;2022-10-17T03:39:00;16.90;;;14.87;;
32365;SDS011;18837;46.832;16.838;2022-10-17T03:41:26;17.17;;;15.23;;
32365;SDS011;18837;46.832;16.838;2022-10-17T03:43:51;15.97;;;13.90;;
32365;SDS011;18837;46.832;16.838;2022-10-17T03:46:18;16.40;;;14.70;;
32365;SDS011;18837;46.832;16.838;2022-10-17T03:48:44;17.00;;;15.20;;
32365;SDS011;18837;46.832;16.838;2022-10-17T03:51:10;16.30;;;14.60;;
32365;SDS011;18837;46.832;16.838;2022-10-17T03:53:41;16.73;;;14.93;;
32365;SDS011;18837;46.832;16.838;2022-10-17T03:58:58;16.80;;;14.97;;
32365;SDS011;18837;46.832;16.838;2022-10-17T04:01:24;16.00;;;14.00;;
32365;SDS011;18837;46.832;16.838;2022-10-17T04:03:53;15.53;;;13.93;;
32365;SDS011;18837;46.832;16.838;2022-10-17T04:06:20;15.73;;;14.00;;
32365;SDS011;18837;46.832;16.838;2022-10-17T04:08:46;15.87;;;14.20;;
32365;SDS011;18837;46.832;16.838;2022-10-17T04:11:13;16.23;;;14.20;;
32365;SDS011;18837;46.832;16.838;2022-10-17T04:13:46;15.20;;;13.60;;
32365;SDS011;18837;46.832;16.838;2022-10-17T04:16:13;16.13;;;14.43;;
32365;SDS011;18837;46.832;16.838;2022-10-17T04:18:40;15.40;;;13.23;;
32365;SDS011;18837;46.832;16.838;2022-10-17T04:21:07;15.87;;;14.27;;
32365;SDS011;18837;46.832;16.838;2022-10-17T04:23:33;15.20;;;13.60;;
32365;SDS011;18837;46.832;16.838;2022-10-17T04:26:00;14.97;;;12.97;;
32365;SDS011;18837;46.832;16.838;2022-10-17T04:34:11;14.23;;;12.60;;
32365;SDS011;18837;46.832;16.838;2022-10-17T04:36:38;15.77;;;14.03;;
32365;SDS011;18837;46.832;16.838;2022-10-17T04:39:04;14.83;;;13.27;;
32365;SDS011;18837;46.832;16.838;2022-10-17T04:41:30;14.60;;;13.10;;
32365;SDS011;18837;46.832;16.838;2022-10-17T04:43:56;15.70;;;14.10;;
32365;SDS011;18837;46.832;16.838;2022-10-17T04:46:21;15.17;;;13.57;;
32365;SDS011;18837;46.832;16.838;2022-10-17T04:48:53;16.57;;;13.93;;
32365;SDS011;18837;46.832;16.838;2022-10-17T04:51:19;15.50;;;14.00;;
32365;SDS011;18837;46.832;16.838;2022-10-17T04:53:45;15.60;;;13.27;;
32365;SDS011;18837;46.832;16.838;2022-10-17T04:56:12;14.73;;;13.23;;
32365;SDS011;18837;46.832;16.838;2022-10-17T04:58:39;13.80;;;12.40;;
32365;SDS011;18837;46.832;16.838;2022-10-17T05:01:06;14.53;;;13.03;;
32365;SDS011;18837;46.832;16.838;2022-10-17T05:06:33;15.90;;;14.03;;
32365;SDS011;18837;46.832;16.838;2022-10-17T05:08:59;15.20;;;12.80;;
32365;SDS011;18837;46.832;16.838;2022-10-17T05:11:26;14.57;;;13.07;;
32365;SDS011;18837;46.832;16.838;2022-10-17T05:13:58;14.43;;;12.93;;
32365;SDS011;18837;46.832;16.838;2022-10-17T05:16:25;15.33;;;13.73;;
32365;SDS011;18837;46.832;16.838;2022-10-17T05:18:53;15.53;;;13.93;;
32365;SDS011;18837;46.832;16.838;2022-10-17T05:21:21;15.97;;;13.57;;
32365;SDS011;18837;46.832;16.838;2022-10-17T05:23:48;15.97;;;13.20;;
32365;SDS011;18837;46.832;16.838;2022-10-17T05:26:14;15.53;;;13.37;;
32365;SDS011;18837;46.832;16.838;2022-10-17T05:28:39;15.63;;;14.03;;
32365;SDS011;18837;46.832;16.838;2022-10-17T05:31:06;16.07;;;14.37;;
32365;SDS011;18837;46.832;16.838;2022-10-17T05:33:33;15.90;;;14.30;;
32365;SDS011;18837;46.832;16.838;2022-10-17T05:35:59;15.37;;;13.73;;
32365;SDS011;18837;46.832;16.838;2022-10-17T05:41:25;16.07;;;14.37;;
32365;SDS011;18837;46.832;16.838;2022-10-17T05:43:51;21.40;;;14.90;;
32365;SDS011;18837;46.832;16.838;2022-10-17T05:46:16;17.03;;;14.67;;
32365;SDS011;18837;46.832;16.838;2022-10-17T05:48:42;17.00;;;14.57;;
32365;SDS011;18837;46.832;16.838;2022-10-17T05:51:08;17.13;;;15.00;;
32365;SDS011;18837;46.832;16.838;2022-10-17T05:53:35;17.03;;;14.47;;
32365;SDS011;18837;46.832;16.838;2022-10-17T05:56:13;16.93;;;14.87;;
32365;SDS011;18837;46.832;16.838;2022-10-17T05:58:40;18.30;;;15.60;;
32365;SDS011;18837;46.832;16.838;2022-10-17T06:01:08;18.03;;;14.73;;
32365;SDS011;18837;46.832;16.838;2022-10-17T06:03:34;16.87;;;15.13;;
32365;SDS011;18837;46.832;16.838;2022-10-17T06:06:07;19.57;;;14.90;;
32365;SDS011;18837;46.832;16.838;2022-10-17T06:08:35;17.37;;;15.60;;
32365;SDS011;18837;46.832;16.838;2022-10-17T06:11:01;18.83;;;16.50;;
32365;SDS011;18837;46.832;16.838;2022-10-17T06:13:45;18.87;;;16.10;;
32365;SDS011;18837;46.832;16.838;2022-10-17T06:16:23;18.13;;;16.13;;
32365;SDS011;18837;46.832;16.838;2022-10-17T06:18:49;21.47;;;16.63;;
32365;SDS011;18837;46.832;16.838;2022-10-17T06:21:16;19.73;;;17.20;;
32365;SDS011;18837;46.832;16.838;2022-10-17T06:23:45;19.67;;;16.77;;
32365;SDS011;18837;46.832;16.838;2022-10-17T06:26:11;17.43;;;15.63;;
32365;SDS011;18837;46.832;16.838;2022-10-17T06:28:37;21.83;;;16.87;;
32365;SDS011;18837;46.832;16.838;2022-10-17T06:31:17;18.30;;;15.67;;
32365;SDS011;18837;46.832;16.838;2022-10-17T06:33:43;18.93;;;16.20;;
32365;SDS011;18837;46.832;16.838;2022-10-17T06:36:09;19.13;;;16.73;;
32365;SDS011;18837;46.832;16.838;2022-10-17T06:38:37;17.43;;;15.53;;
32365;SDS011;18837;46.832;16.838;2022-10-17T06:41:04;17.93;;;16.00;;
32365;SDS011;18837;46.832;16.838;2022-10-17T06:43:41;17.10;;;15.30;;
32365;SDS011;18837;46.832;16.838;2022-10-17T06:51:58;17.13;;;15.37;;
32365;SDS011;18837;46.832;16.838;2022-10-17T06:54:24;16.43;;;14.73;;
32365;SDS011;18837;46.832;16.838;2022-10-17T06:56:49;15.43;;;13.83;;
32365;SDS011;18837;46.832;16.838;2022-10-17T06:59:15;15.50;;;13.80;;
32365;SDS011;18837;46.832;16.838;2022-10-17T07:01:41;16.70;;;14.60;;
32365;SDS011;18837;46.832;16.838;2022-10-17T07:04:06;16.43;;;14.73;;
32365;SDS011;18837;46.832;16.838;2022-10-17T07:06:38;16.10;;;14.50;;
32365;SDS011;18837;46.832;16.838;2022-10-17T07:09:04;17.40;;;15.17;;
32365;SDS011;18837;46.832;16.838;2022-10-17T07:11:31;15.33;;;13.73;;
32365;SDS011;18837;46.832;16.838;2022-10-17T07:13:58;16.73;;;14.43;;
32365;SDS011;18837;46.832;16.838;2022-10-17T07:16:23;15.67;;;13.43;;
32365;SDS011;18837;46.832;16.838;2022-10-17T07:18:49;14.97;;;13.47;;
32365;SDS011;18837;46.832;16.838;2022-10-17T07:21:34;15.27;;;13.67;;
32365;SDS011;18837;46.832;16.838;2022-10-17T07:26:47;14.97;;;13.37;;
32365;SDS011;18837;46.832;16.838;2022-10-17T07:29:13;14.53;;;13.03;;
32365;SDS011;18837;46.832;16.838;2022-10-17T07:31:38;15.13;;;12.97;;
32365;SDS011;18837;46.832;16.838;2022-10-17T07:34:04;13.03;;;11.73;;
32365;SDS011;18837;46.832;16.838;2022-10-17T07:36:30;14.60;;;12.33;;
32365;SDS011;18837;46.832;16.838;2022-10-17T07:38:55;14.80;;;12.80;;
32365;SDS011;18837;46.832;16.838;2022-10-17T07:41:24;13.20;;;11.80;;
32365;SDS011;18837;46.832;16.838;2022-10-17T07:43:50;14.50;;;12.43;;
32365;SDS011;18837;46.832;16.838;2022-10-17T07:46:16;13.77;;;12.30;;
32365;SDS011;18837;46.832;16.838;2022-10-17T07:48:41;17.10;;;12.47;;
32365;SDS011;18837;46.832;16.838;2022-10-17T07:51:07;13.33;;;11.93;;
32365;SDS011;18837;46.832;16.838;2022-10-17T07:53:35;13.80;;;12.40;;
32365;SDS011;18837;46.832;16.838;2022-10-17T08:39:22;13.47;;;12.07;;
32365;SDS011;18837;46.832;16.838;2022-10-17T08:47:35;12.60;;;11.27;;
32365;SDS011;18837;46.832;16.838;2022-10-17T08:50:15;12.43;;;11.07;;
32365;SDS011;18837;46.832;16.838;2022-10-17T08:52:46;13.00;;;11.53;;
32365;SDS011;18837;46.832;16.838;2022-10-17T08:55:38;12.20;;;10.97;;
32365;SDS011;18837;46.832;16.838;2022-10-17T08:58:06;12.27;;;10.97;;
32365;SDS011;18837;46.832;16.838;2022-10-17T09:01:04;13.03;;;11.73;;
32365;SDS011;18837;46.832;16.838;2022-10-17T09:16:03;11.83;;;10.63;;
32365;SDS011;18837;46.832;16.838;2022-10-17T09:19:10;11.80;;;10.47;;
32365;SDS011;18837;46.832;16.838;2022-10-17T09:22:00;12.07;;;10.77;;
32365;SDS011;18837;46.832;16.838;2022-10-17T09:27:39;11.60;;;10.37;;
32365;SDS011;18837;46.832;16.838;2022-10-17T09:30:15;12.17;;;10.43;;
32365;SDS011;18837;46.832;16.838;2022-10-17T09:32:49;12.00;;;10.70;;
32365;SDS011;18837;46.832;16.838;2022-10-17T09:35:15;12.10;;;10.97;;
32365;SDS011;18837;46.832;16.838;2022-10-17T09:37:41;11.70;;;10.53;;
32365;SDS011;18837;46.832;16.838;2022-10-17T09:43:14;11.83;;;10.23;;
32365;SDS011;18837;46.832;16.838;2022-10-17T09:45:42;13.07;;;10.97;;
32365;SDS011;18837;46.832;16.838;2022-10-17T09:48:28;12.27;;;11.07;;
32365;SDS011;18837;46.832;16.838;2022-10-17T09:51:01;11.80;;;10.63;;
32365;SDS011;18837;46.832;16.838;2022-10-17T09:53:32;13.00;;;11.47;;
32365;SDS011;18837;46.832;16.838;2022-10-17T09:56:09;12.53;;;10.97;;
32365;SDS011;18837;46.832;16.838;2022-10-17T09:58:50;13.80;;;10.97;;
32365;SDS011;18837;46.832;16.838;2022-10-17T10:01:24;13.47;;;11.33;;
32365;SDS011;18837;46.832;16.838;2022-10-17T10:04:08;11.90;;;10.70;;
32365;SDS011;18837;46.832;16.838;2022-10-17T10:06:34;11.93;;;9.90;;
32365;SDS011;18837;46.832;16.838;2022-10-17T10:08:59;10.63;;;9.50;;
32365;SDS011;18837;46.832;16.838;2022-10-17T10:37:43;17.47;;;13.00;;
32365;SDS011;18837;46.832;16.838;2022-10-17T10:40:17;14.47;;;11.87;;
32365;SDS011;18837;46.832;16.838;2022-10-17T10:42:51;13.27;;;11.80;;
32365;SDS011;18837;46.832;16.838;2022-10-17T10:45:38;15.30;;;10.93;;
32365;SDS011;18837;46.832;16.838;2022-10-17T10:56:45;13.43;;;11.07;;
32365;SDS011;18837;46.832;16.838;2022-10-17T11:04:45;12.90;;;11.60;;
32365;SDS011;18837;46.832;16.838;2022-10-17T11:07:35;11.97;;;10.73;;
32365;SDS011;18837;46.832;16.838;2022-10-17T11:12:55;13.70;;;10.70;;
32365;SDS011;18837;46.832;16.838;2022-10-17T11:18:25;11.87;;;10.63;;
32365;SDS011;18837;46.832;16.838;2022-10-17T11:20:58;12.23;;;10.80;;
32365;SDS011;18837;46.832;16.838;2022-10-17T11:23:52;10.93;;;9.90;;
32365;SDS011;18837;46.832;16.838;2022-10-17T11:26:32;11.13;;;10.07;;
32365;SDS011;18837;46.832;16.838;2022-10-17T11:29:05;13.40;;;10.10;;
32365;SDS011;18837;46.832;16.838;2022-10-17T11:31:37;11.67;;;10.53;;
32365;SDS011;18837;46.832;16.838;2022-10-17T11:37:11;11.03;;;9.93;;
32365;SDS011;18837;46.832;16.838;2022-10-17T11:39:52;12.63;;;10.77;;
32365;SDS011;18837;46.832;16.838;2022-10-17T11:42:31;11.20;;;10.10;;
32365;SDS011;18837;46.832;16.838;2022-10-17T11:45:19;10.83;;;9.40;;
32365;SDS011;18837;46.832;16.838;2022-10-17T11:47:51;11.67;;;9.77;;
32365;SDS011;18837;46.832;16.838;2022-10-17T11:50:34;11.07;;;9.97;;
32365;SDS011;18837;46.832;16.838;2022-10-17T11:55:43;10.80;;;9.70;;
32365;SDS011;18837;46.832;16.838;2022-10-17T12:01:32;10.60;;;9.40;;
32365;SDS011;18837;46.832;16.838;2022-10-17T12:12:40;10.43;;;9.43;;
32365;SDS011;18837;46.832;16.838;2022-10-17T12:17:54;10.33;;;9.33;;
32365;SDS011;18837;46.832;16.838;2022-10-17T12:20:24;13.17;;;9.60;;
32365;SDS011;18837;46.832;16.838;2022-10-17T12:22:54;10.30;;;8.80;;
32365;SDS011;18837;46.832;16.838;2022-10-17T12:25:29;10.07;;;9.07;;
32365;SDS011;18837;46.832;16.838;2022-10-17T12:28:40;9.60;;;8.70;;
32365;SDS011;18837;46.832;16.838;2022-10-17T12:31:06;9.73;;;8.83;;
32365;SDS011;18837;46.832;16.838;2022-10-17T12:33:39;10.03;;;9.13;;
32365;SDS011;18837;46.832;16.838;2022-10-17T12:42:12;10.20;;;9.20;;
32365;SDS011;18837;46.832;16.838;2022-10-17T12:54:51;9.63;;;8.83;;
32365;SDS011;18837;46.832;16.838;2022-10-17T12:58:04;9.73;;;8.73;;
32365;SDS011;18837;46.832;16.838;2022-10-17T13:00:15;9.67;;;8.67;;
32365;SDS011;18837;46.832;16.838;2022-10-17T13:02:41;9.23;;;8.33;;
32365;SDS011;18837;46.832;16.838;2022-10-17T13:05:10;9.80;;;8.73;;
32365;SDS011;18837;46.832;16.838;2022-10-17T13:07:49;9.63;;;8.37;;
32365;SDS011;18837;46.832;16.838;2022-10-17T13:10:18;9.03;;;8.10;;
32365;SDS011;18837;46.832;16.838;2022-10-17T13:12:46;9.27;;;8.37;;
32365;SDS011;18837;46.832;16.838;2022-10-17T13:15:15;9.27;;;8.47;;
32365;SDS011;18837;46.832;16.838;2022-10-17T13:17:43;9.70;;;8.70;;
32365;SDS011;18837;46.832;16.838;2022-10-17T13:20:19;8.97;;;8.07;;
32365;SDS011;18837;46.832;16.838;2022-10-17T13:22:49;9.80;;;8.80;;
32365;SDS011;18837;46.832;16.838;2022-10-17T13:25:20;9.27;;;8.33;;
32365;SDS011;18837;46.832;16.838;2022-10-17T13:27:47;9.60;;;8.50;;
32365;SDS011;18837;46.832;16.838;2022-10-17T13:30:28;9.57;;;8.73;;
32365;SDS011;18837;46.832;16.838;2022-10-17T13:32:56;8.80;;;7.90;;
32365;SDS011;18837;46.832;16.838;2022-10-17T13:35:29;9.37;;;8.43;;
32365;SDS011;18837;46.832;16.838;2022-10-17T13:37:59;9.30;;;8.40;;
32365;SDS011;18837;46.832;16.838;2022-10-17T13:40:38;9.33;;;7.97;;
32365;SDS011;18837;46.832;16.838;2022-10-17T13:43:10;9.87;;;8.40;;
32365;SDS011;18837;46.832;16.838;2022-10-17T13:45:45;8.73;;;7.93;;
32365;SDS011;18837;46.832;16.838;2022-10-17T13:48:25;8.80;;;8.00;;
32365;SDS011;18837;46.832;16.838;2022-10-17T13:50:53;8.63;;;7.77;;
32365;SDS011;18837;46.832;16.838;2022-10-17T13:53:25;8.63;;;7.73;;
32365;SDS011;18837;46.832;16.838;2022-10-17T13:56:18;9.30;;;8.43;;
32365;SDS011;18837;46.832;16.838;2022-10-17T14:01:21;8.93;;;8.13;;
32365;SDS011;18837;46.832;16.838;2022-10-17T14:03:51;10.37;;;8.80;;
32365;SDS011;18837;46.832;16.838;2022-10-17T14:11:26;9.20;;;8.30;;
32365;SDS011;18837;46.832;16.838;2022-10-17T14:14:21;9.63;;;8.30;;
32365;SDS011;18837;46.832;16.838;2022-10-17T14:16:50;9.00;;;8.20;;
32365;SDS011;18837;46.832;16.838;2022-10-17T14:19:26;9.93;;;8.93;;
32365;SDS011;18837;46.832;16.838;2022-10-17T14:24:46;8.67;;;7.77;;
32365;SDS011;18837;46.832;16.838;2022-10-17T14:27:27;9.60;;;8.33;;
32365;SDS011;18837;46.832;16.838;2022-10-17T14:29:57;9.83;;;8.40;;
32365;SDS011;18837;46.832;16.838;2022-10-17T14:32:28;9.73;;;7.93;;
32365;SDS011;18837;46.832;16.838;2022-10-17T14:35:01;8.67;;;7.87;;
32365;SDS011;18837;46.832;16.838;2022-10-17T14:37:38;11.87;;;8.60;;
32365;SDS011;18837;46.832;16.838;2022-10-17T14:42:51;11.07;;;9.17;;
32365;SDS011;18837;46.832;16.838;2022-10-17T14:45:22;10.73;;;9.63;;
32365;SDS011;18837;46.832;16.838;2022-10-17T14:47:49;11.40;;;9.70;;
32365;SDS011;18837;46.832;16.838;2022-10-17T14:50:31;9.57;;;8.57;;
32365;SDS011;18837;46.832;16.838;2022-10-17T14:52:58;11.03;;;9.17;;
32365;SDS011;18837;46.832;16.838;2022-10-17T14:55:31;10.10;;;8.70;;
32365;SDS011;18837;46.832;16.838;2022-10-17T14:57:58;12.77;;;9.17;;
32365;SDS011;18837;46.832;16.838;2022-10-17T15:00:24;11.77;;;9.80;;
32365;SDS011;18837;46.832;16.838;2022-10-17T15:02:51;10.97;;;9.17;;
32365;SDS011;18837;46.832;16.838;2022-10-17T15:05:18;10.30;;;9.07;;
32365;SDS011;18837;46.832;16.838;2022-10-17T15:07:44;11.77;;;9.10;;
32365;SDS011;18837;46.832;16.838;2022-10-17T15:10:32;10.90;;;8.93;;
32365;SDS011;18837;46.832;16.838;2022-10-17T15:13:01;11.20;;;8.57;;
32365;SDS011;18837;46.832;16.838;2022-10-17T15:15:28;11.67;;;8.70;;
32365;SDS011;18837;46.832;16.838;2022-10-17T15:17:54;10.80;;;8.80;;
32365;SDS011;18837;46.832;16.838;2022-10-17T15:20:20;9.93;;;8.60;;
32365;SDS011;18837;46.832;16.838;2022-10-17T15:22:50;9.13;;;7.97;;
32365;SDS011;18837;46.832;16.838;2022-10-17T15:25:16;8.97;;;8.07;;
32365;SDS011;18837;46.832;16.838;2022-10-17T15:27:43;9.20;;;7.63;;
32365;SDS011;18837;46.832;16.838;2022-10-17T15:30:23;12.43;;;9.03;;
32365;SDS011;18837;46.832;16.838;2022-10-17T15:32:50;9.17;;;8.20;;
32365;SDS011;18837;46.832;16.838;2022-10-17T15:35:17;11.20;;;8.20;;
32365;SDS011;18837;46.832;16.838;2022-10-17T15:37:44;8.93;;;8.03;;
32365;SDS011;18837;46.832;16.838;2022-10-17T15:40:21;9.60;;;7.93;;
32365;SDS011;18837;46.832;16.838;2022-10-17T15:42:54;8.90;;;7.67;;
32365;SDS011;18837;46.832;16.838;2022-10-17T15:45:22;10.40;;;7.90;;
32365;SDS011;18837;46.832;16.838;2022-10-17T15:47:49;9.47;;;8.47;;
32365;SDS011;18837;46.832;16.838;2022-10-17T15:50:20;9.87;;;8.13;;
32365;SDS011;18837;46.832;16.838;2022-10-17T15:52:46;9.13;;;8.00;;
32365;SDS011;18837;46.832;16.838;2022-10-17T15:55:15;10.77;;;8.23;;
32365;SDS011;18837;46.832;16.838;2022-10-17T15:57:42;11.53;;;8.23;;
32365;SDS011;18837;46.832;16.838;2022-10-17T16:00:20;9.70;;;8.40;;
32365;SDS011;18837;46.832;16.838;2022-10-17T16:03:01;10.50;;;8.20;;
32365;SDS011;18837;46.832;16.838;2022-10-17T16:05:26;9.47;;;8.07;;
32365;SDS011;18837;46.832;16.838;2022-10-17T16:07:53;8.20;;;7.07;;
32365;SDS011;18837;46.832;16.838;2022-10-17T16:10:21;9.17;;;8.17;;
32365;SDS011;18837;46.832;16.838;2022-10-17T16:12:47;9.37;;;7.87;;
32365;SDS011;18837;46.832;16.838;2022-10-17T16:15:19;9.93;;;8.13;;
32365;SDS011;18837;46.832;16.838;2022-10-17T16:17:52;11.30;;;7.70;;
32365;SDS011;18837;46.832;16.838;2022-10-17T16:20:20;19.60;;;9.32;;
32365;SDS011;18837;46.832;16.838;2022-10-17T16:22:47;13.50;;;8.30;;
32365;SDS011;18837;46.832;16.838;2022-10-17T16:25:20;18.27;;;8.13;;
32365;SDS011;18837;46.832;16.838;2022-10-17T16:27:48;15.77;;;8.40;;
32365;SDS011;18837;46.832;16.838;2022-10-17T16:30:15;14.37;;;8.17;;
32365;SDS011;18837;46.832;16.838;2022-10-17T16:32:41;11.50;;;8.53;;
32365;SDS011;18837;46.832;16.838;2022-10-17T16:38:06;10.50;;;7.93;;
32365;SDS011;18837;46.832;16.838;2022-10-17T16:40:40;9.50;;;7.83;;
32365;SDS011;18837;46.832;16.838;2022-10-17T16:43:08;14.23;;;7.90;;
32365;SDS011;18837;46.832;16.838;2022-10-17T16:45:36;10.73;;;8.03;;
32365;SDS011;18837;46.832;16.838;2022-10-17T16:48:02;9.27;;;8.23;;
32365;SDS011;18837;46.832;16.838;2022-10-17T16:50:27;14.63;;;7.53;;
32365;SDS011;18837;46.832;16.838;2022-10-17T16:53:04;7.83;;;7.03;;
32365;SDS011;18837;46.832;16.838;2022-10-17T16:55:30;9.50;;;8.03;;
32365;SDS011;18837;46.832;16.838;2022-10-17T16:57:55;10.57;;;8.10;;
32365;SDS011;18837;46.832;16.838;2022-10-17T17:00:21;10.63;;;7.43;;
32365;SDS011;18837;46.832;16.838;2022-10-17T17:02:47;11.60;;;7.73;;
32365;SDS011;18837;46.832;16.838;2022-10-17T17:05:13;9.53;;;7.43;;
32365;SDS011;18837;46.832;16.838;2022-10-17T17:07:39;9.97;;;8.40;;
32365;SDS011;18837;46.832;16.838;2022-10-17T17:10:23;9.47;;;7.73;;
32365;SDS011;18837;46.832;16.838;2022-10-17T17:13:01;8.90;;;7.97;;
32365;SDS011;18837;46.832;16.838;2022-10-17T17:15:28;11.10;;;7.80;;
32365;SDS011;18837;46.832;16.838;2022-10-17T17:17:53;12.63;;;8.17;;
32365;SDS011;18837;46.832;16.838;2022-10-17T17:20:19;11.40;;;7.97;;
32365;SDS011;18837;46.832;16.838;2022-10-17T17:22:45;9.13;;;7.37;;
32365;SDS011;18837;46.832;16.838;2022-10-17T17:25:10;10.43;;;8.43;;
32365;SDS011;18837;46.832;16.838;2022-10-17T17:27:42;9.73;;;8.20;;
32365;SDS011;18837;46.832;16.838;2022-10-17T17:30:08;9.30;;;7.53;;
32365;SDS011;18837;46.832;16.838;2022-10-17T17:32:34;11.20;;;8.33;;
32365;SDS011;18837;46.832;16.838;2022-10-17T17:34:59;12.93;;;9.07;;
32365;SDS011;18837;46.832;16.838;2022-10-17T17:37:25;9.73;;;8.23;;
32365;SDS011;18837;46.832;16.838;2022-10-17T17:39:51;10.87;;;8.60;;
32365;SDS011;18837;46.832;16.838;2022-10-17T17:42:25;11.67;;;8.50;;
32365;SDS011;18837;46.832;16.838;2022-10-17T17:47:51;8.43;;;7.63;;
32365;SDS011;18837;46.832;16.838;2022-10-17T17:50:18;9.50;;;8.53;;
32365;SDS011;18837;46.832;16.838;2022-10-17T17:52:44;10.03;;;8.30;;
32365;SDS011;18837;46.832;16.838;2022-10-17T17:55:10;8.47;;;7.57;;
32365;SDS011;18837;46.832;16.838;2022-10-17T17:57:37;11.90;;;8.57;;
32365;SDS011;18837;46.832;16.838;2022-10-17T18:00:03;9.83;;;7.77;;
32365;SDS011;18837;46.832;16.838;2022-10-17T18:02:34;10.37;;;8.27;;
32365;SDS011;18837;46.832;16.838;2022-10-17T18:05:00;10.00;;;8.27;;
32365;SDS011;18837;46.832;16.838;2022-10-17T18:07:26;10.37;;;8.70;;
32365;SDS011;18837;46.832;16.838;2022-10-17T18:09:52;9.70;;;7.83;;
32365;SDS011;18837;46.832;16.838;2022-10-17T18:12:18;8.73;;;7.83;;
32365;SDS011;18837;46.832;16.838;2022-10-17T18:14:44;10.70;;;8.90;;
32365;SDS011;18837;46.832;16.838;2022-10-17T18:17:23;9.70;;;8.70;;
32365;SDS011;18837;46.832;16.838;2022-10-17T18:22:44;11.13;;;9.23;;
32365;SDS011;18837;46.832;16.838;2022-10-17T18:25:10;10.93;;;8.87;;
32365;SDS011;18837;46.832;16.838;2022-10-17T18:27:36;10.27;;;8.93;;
32365;SDS011;18837;46.832;16.838;2022-10-17T18:30:02;11.23;;;8.90;;
32365;SDS011;18837;46.832;16.838;2022-10-17T18:32:29;9.37;;;8.23;;
32365;SDS011;18837;46.832;16.838;2022-10-17T18:34:56;10.37;;;9.37;;
32365;SDS011;18837;46.832;16.838;2022-10-17T18:37:26;10.57;;;9.10;;